sensor_id;sensor_type;location;lat;lon;timestamp;pressure;altitude;pressure_sealevel;temperature;humidity
28310;BME280;15571;50.974;13.936;2024-02-21T00:00:49;100823.06;;;9.87;100.00
28310;BME280;15571;50.974;13.936;2024-02-21T00:03:51;100824.75;;;9.78;100.00
28310;BME280;15571;50.974;13.936;2024-02-21T00:06:57;100819.59;;;9.89;100.00
28310;BME280;15571;50.974;13.936;2024-02-21T00:09:59;100820.53;;;10.02;100.00
28310;BME280;15571;50.974;13.936;2024-02-21T00:13:01;100809.19;;;9.97;100.00
28310;BME280;15571;50.974;13.936;2024-02-21T00:16:03;100810.09;;;9.99;100.00
28310;BME280;15571;50.974;13.936;2024-02-21T00:19:04;100808.31;;;9.95;100.00
28310;BME280;15571;50.974;13.936;2024-02-21T00:22:08;100811.84;;;10.03;100.00
28310;BME280;15571;50.974;13.936;2024-02-21T00:25:10;100811.84;;;10.03;100.00
28310;BME280;15571;50.974;13.936;2024-02-21T00:28:12;100793.50;;;9.99;100.00
28310;BME280;15571;50.974;13.936;2024-02-21T00:31:13;100800.44;;;9.96;100.00
28310;BME280;15571;50.974;13.936;2024-02-21T00:34:15;100791.75;;;9.97;100.00
28310;BME280;15571;50.974;13.936;2024-02-21T00:37:18;100790.88;;;10.00;100.00
28310;BME280;15571;50.974;13.936;2024-02-21T00:40:20;100783.03;;;9.99;100.00
28310;BME280;15571;50.974;13.936;2024-02-21T00:43:22;100773.44;;;9.96;100.00
28310;BME280;15571;50.974;13.936;2024-02-21T00:46:24;100769.09;;;9.98;100.00
28310;BME280;15571;50.974;13.936;2024-02-21T00:49:26;100776.06;;;9.97;100.00
28310;BME280;15571;50.974;13.936;2024-02-21T00:52:30;100764.72;;;9.97;100.00
28310;BME280;15571;50.974;13.936;2024-02-21T00:55:31;100763.88;;;10.04;100.00
28310;BME280;15571;50.974;13.936;2024-02-21T00:58:34;100770.84;;;10.01;100.00
28310;BME280;15571;50.974;13.936;2024-02-21T01:01:36;100754.31;;;10.09;100.00
28310;BME280;15571;50.974;13.936;2024-02-21T01:04:37;100751.66;;;10.03;100.00
28310;BME280;15571;50.974;13.936;2024-02-21T01:07:41;100745.66;;;10.29;100.00
28310;BME280;15571;50.974;13.936;2024-02-21T01:10:43;100740.44;;;10.23;100.00
28310;BME280;15571;50.974;13.936;2024-02-21T01:13:44;100739.50;;;10.10;100.00
28310;BME280;15571;50.974;13.936;2024-02-21T01:16:46;100741.22;;;10.05;100.00
28310;BME280;15571;50.974;13.936;2024-02-21T01:19:48;100734.22;;;10.02;100.00
28310;BME280;15571;50.974;13.936;2024-02-21T01:22:51;100729.91;;;10.10;100.00
28310;BME280;15571;50.974;13.936;2024-02-21T01:25:53;100728.13;;;10.05;100.00
28310;BME280;15571;50.974;13.936;2024-02-21T01:28:55;100722.88;;;10.00;100.00
28310;BME280;15571;50.974;13.936;2024-02-21T01:31:57;100712.44;;;10.02;100.00
28310;BME280;15571;50.974;13.936;2024-02-21T01:34:59;100710.72;;;10.11;100.00
28310;BME280;15571;50.974;13.936;2024-02-21T01:38:03;100710.78;;;10.18;100.00
28310;BME280;15571;50.974;13.936;2024-02-21T01:41:05;100705.47;;;10.07;100.00
28310;BME280;15571;50.974;13.936;2024-02-21T01:44:07;100692.34;;;9.97;100.00
28310;BME280;15571;50.974;13.936;2024-02-21T01:47:09;100687.09;;;9.93;100.00
28310;BME280;15571;50.974;13.936;2024-02-21T01:50:13;100688.00;;;9.93;100.00
28310;BME280;15571;50.974;13.936;2024-02-21T01:53:21;100683.59;;;9.89;100.00
28310;BME280;15571;50.974;13.936;2024-02-21T01:56:23;100681.88;;;9.87;100.00
28310;BME280;15571;50.974;13.936;2024-02-21T01:59:25;100670.50;;;9.85;100.00
28310;BME280;15571;50.974;13.936;2024-02-21T02:02:27;100669.63;;;9.79;100.00
28310;BME280;15571;50.974;13.936;2024-02-21T02:05:30;100666.13;;;9.77;100.00
28310;BME280;15571;50.974;13.936;2024-02-21T02:08:33;100665.25;;;9.81;100.00
28310;BME280;15571;50.974;13.936;2024-02-21T02:11:35;100670.44;;;9.72;100.00
28310;BME280;15571;50.974;13.936;2024-02-21T02:14:37;100670.44;;;9.69;100.00
28310;BME280;15571;50.974;13.936;2024-02-21T02:17:39;100657.34;;;9.66;100.00
28310;BME280;15571;50.974;13.936;2024-02-21T02:20:41;100664.31;;;9.65;100.00
28310;BME280;15571;50.974;13.936;2024-02-21T02:23:44;100658.19;;;9.62;100.00
28310;BME280;15571;50.974;13.936;2024-02-21T02:26:46;100666.06;;;9.63;100.00
28310;BME280;15571;50.974;13.936;2024-02-21T02:29:48;100660.84;;;9.63;100.00
28310;BME280;15571;50.974;13.936;2024-02-21T02:32:50;100665.16;;;9.57;100.00
28310;BME280;15571;50.974;13.936;2024-02-21T02:35:52;100662.50;;;9.54;100.00
28310;BME280;15571;50.974;13.936;2024-02-21T02:38:55;100658.16;;;9.57;100.00
28310;BME280;15571;50.974;13.936;2024-02-21T02:41:57;100662.56;;;9.61;100.00
28310;BME280;15571;50.974;13.936;2024-02-21T02:44:59;100650.34;;;9.59;100.00
28310;BME280;15571;50.974;13.936;2024-02-21T02:48:01;100653.00;;;9.68;100.00
28310;BME280;15571;50.974;13.936;2024-02-21T02:51:03;100647.72;;;9.62;100.00
28310;BME280;15571;50.974;13.936;2024-02-21T02:54:06;100651.22;;;9.61;100.00
28310;BME280;15571;50.974;13.936;2024-02-21T02:57:08;100646.88;;;9.61;100.00
28310;BME280;15571;50.974;13.936;2024-02-21T03:00:11;100637.28;;;9.62;100.00
28310;BME280;15571;50.974;13.936;2024-02-21T03:03:13;100639.91;;;9.63;100.00
28310;BME280;15571;50.974;13.936;2024-02-21T03:06:15;100637.28;;;9.62;100.00
28310;BME280;15571;50.974;13.936;2024-02-21T03:09:20;100638.16;;;9.62;100.00
28310;BME280;15571;50.974;13.936;2024-02-21T03:12:22;100634.69;;;9.63;100.00
28310;BME280;15571;50.974;13.936;2024-02-21T03:15:28;100634.69;;;9.65;100.00
28310;BME280;15571;50.974;13.936;2024-02-21T03:18:30;100631.22;;;9.64;100.00
28310;BME280;15571;50.974;13.936;2024-02-21T03:21:32;100626.81;;;9.62;100.00
28310;BME280;15571;50.974;13.936;2024-02-21T03:24:35;100618.13;;;9.63;100.00
28310;BME280;15571;50.974;13.936;2024-02-21T03:27:37;100621.59;;;9.62;100.00
28310;BME280;15571;50.974;13.936;2024-02-21T03:30:39;100616.38;;;9.60;100.00
28310;BME280;15571;50.974;13.936;2024-02-21T03:33:42;100616.38;;;9.59;100.00
28310;BME280;15571;50.974;13.936;2024-02-21T03:36:44;100612.91;;;9.60;100.00
28310;BME280;15571;50.974;13.936;2024-02-21T03:39:47;100613.75;;;9.60;100.00
28310;BME280;15571;50.974;13.936;2024-02-21T03:42:52;100616.38;;;9.62;100.00
28310;BME280;15571;50.974;13.936;2024-02-21T03:45:53;100621.59;;;9.62;100.00
28310;BME280;15571;50.974;13.936;2024-02-21T03:48:55;100621.63;;;9.65;100.00
28310;BME280;15571;50.974;13.936;2024-02-21T03:51:57;100611.16;;;9.65;100.00
28310;BME280;15571;50.974;13.936;2024-02-21T03:55:01;100619.00;;;9.65;100.00
28310;BME280;15571;50.974;13.936;2024-02-21T03:58:05;100614.66;;;9.67;100.00
28310;BME280;15571;50.974;13.936;2024-02-21T04:01:08;100600.72;;;9.71;100.00
28310;BME280;15571;50.974;13.936;2024-02-21T04:04:11;100602.47;;;9.72;100.00
28310;BME280;15571;50.974;13.936;2024-02-21T04:07:15;100601.59;;;9.70;100.00
28310;BME280;15571;50.974;13.936;2024-02-21T04:10:19;100596.34;;;9.70;100.00
28310;BME280;15571;50.974;13.936;2024-02-21T04:13:22;100593.75;;;9.70;100.00
28310;BME280;15571;50.974;13.936;2024-02-21T04:16:23;100596.38;;;9.73;100.00
28310;BME280;15571;50.974;13.936;2024-02-21T04:19:25;100592.03;;;9.72;100.00
28310;BME280;15571;50.974;13.936;2024-02-21T04:22:27;100586.78;;;9.72;100.00
28310;BME280;15571;50.974;13.936;2024-02-21T04:25:30;100585.91;;;9.70;100.00
28310;BME280;15571;50.974;13.936;2024-02-21T04:28:32;100590.28;;;9.76;100.00
28310;BME280;15571;50.974;13.936;2024-02-21T04:31:35;100583.31;;;9.72;100.00
28310;BME280;15571;50.974;13.936;2024-02-21T04:34:36;100588.53;;;9.73;100.00
28310;BME280;15571;50.974;13.936;2024-02-21T04:37:39;100584.19;;;9.74;100.00
28310;BME280;15571;50.974;13.936;2024-02-21T04:40:42;100583.34;;;9.76;100.00
28310;BME280;15571;50.974;13.936;2024-02-21T04:43:45;100578.16;;;9.89;100.00
28310;BME280;15571;50.974;13.936;2024-02-21T04:46:47;100577.28;;;9.87;100.00
28310;BME280;15571;50.974;13.936;2024-02-21T04:49:49;100575.50;;;9.87;100.00
28310;BME280;15571;50.974;13.936;2024-02-21T04:52:51;100580.72;;;9.81;100.00
28310;BME280;15571;50.974;13.936;2024-02-21T04:55:54;100586.81;;;9.81;100.00
28310;BME280;15571;50.974;13.936;2024-02-21T04:58:56;100576.38;;;9.78;100.00
28310;BME280;15571;50.974;13.936;2024-02-21T05:01:58;100580.72;;;9.78;100.00
28310;BME280;15571;50.974;13.936;2024-02-21T05:05:03;100571.09;;;9.71;100.00
28310;BME280;15571;50.974;13.936;2024-02-21T05:08:06;100571.09;;;9.72;100.00
28310;BME280;15571;50.974;13.936;2024-02-21T05:11:09;100571.97;;;9.68;100.00
28310;BME280;15571;50.974;13.936;2024-02-21T05:14:11;100573.69;;;9.61;100.00
28310;BME280;15571;50.974;13.936;2024-02-21T05:17:16;100567.53;;;9.48;100.00
28310;BME280;15571;50.974;13.936;2024-02-21T05:20:18;100567.59;;;9.58;100.00
28310;BME280;15571;50.974;13.936;2024-02-21T05:23:20;100551.88;;;9.55;100.00
28310;BME280;15571;50.974;13.936;2024-02-21T05:26:24;100558.84;;;9.56;100.00
28310;BME280;15571;50.974;13.936;2024-02-21T05:29:26;100564.94;;;9.55;100.00
28310;BME280;15571;50.974;13.936;2024-02-21T05:32:28;100557.13;;;9.58;100.00
28310;BME280;15571;50.974;13.936;2024-02-21T05:35:30;100562.34;;;9.61;100.00
28310;BME280;15571;50.974;13.936;2024-02-21T05:38:32;100562.34;;;9.61;100.00
28310;BME280;15571;50.974;13.936;2024-02-21T05:41:35;100549.28;;;9.65;100.00
28310;BME280;15571;50.974;13.936;2024-02-21T05:44:37;100558.88;;;9.62;100.00
28310;BME280;15571;50.974;13.936;2024-02-21T05:47:39;100550.19;;;9.72;100.00
28310;BME280;15571;50.974;13.936;2024-02-21T05:50:41;100551.94;;;9.73;100.00
28310;BME280;15571;50.974;13.936;2024-02-21T05:53:42;100543.22;;;9.71;100.00
28310;BME280;15571;50.974;13.936;2024-02-21T05:56:48;100538.88;;;9.78;100.00
28310;BME280;15571;50.974;13.936;2024-02-21T05:59:51;100531.94;;;9.78;100.00
28310;BME280;15571;50.974;13.936;2024-02-21T06:02:55;100530.19;;;9.84;100.00
28310;BME280;15571;50.974;13.936;2024-02-21T06:05:57;100525.81;;;9.81;100.00
28310;BME280;15571;50.974;13.936;2024-02-21T06:08:59;100527.56;;;9.85;100.00
28310;BME280;15571;50.974;13.936;2024-02-21T06:12:04;100527.56;;;9.84;100.00
28310;BME280;15571;50.974;13.936;2024-02-21T06:15:06;100523.22;;;9.86;100.00
28310;BME280;15571;50.974;13.936;2024-02-21T06:18:08;100518.88;;;9.88;100.00
28310;BME280;15571;50.974;13.936;2024-02-21T06:21:10;100519.72;;;9.90;100.00
28310;BME280;15571;50.974;13.936;2024-02-21T06:24:13;100517.16;;;9.96;100.00
28310;BME280;15571;50.974;13.936;2024-02-21T06:27:19;100509.31;;;9.96;100.00
28310;BME280;15571;50.974;13.936;2024-02-21T06:30:21;100509.31;;;9.99;100.00
28310;BME280;15571;50.974;13.936;2024-02-21T06:33:23;100504.94;;;10.01;100.00
28310;BME280;15571;50.974;13.936;2024-02-21T06:36:25;100504.09;;;10.04;100.00
28310;BME280;15571;50.974;13.936;2024-02-21T06:39:27;100499.72;;;10.06;100.00
28310;BME280;15571;50.974;13.936;2024-02-21T06:42:31;100496.25;;;10.08;100.00
28310;BME280;15571;50.974;13.936;2024-02-21T06:45:34;100497.09;;;10.13;100.00
28310;BME280;15571;50.974;13.936;2024-02-21T06:48:35;100491.00;;;10.18;100.00
28310;BME280;15571;50.974;13.936;2024-02-21T06:51:37;100489.28;;;10.17;100.00
28310;BME280;15571;50.974;13.936;2024-02-21T06:54:39;100491.88;;;10.20;100.00
28310;BME280;15571;50.974;13.936;2024-02-21T06:57:42;100494.50;;;10.23;100.00
28310;BME280;15571;50.974;13.936;2024-02-21T07:00:44;100496.25;;;10.22;100.00
28310;BME280;15571;50.974;13.936;2024-02-21T07:03:47;100484.03;;;10.26;100.00
28310;BME280;15571;50.974;13.936;2024-02-21T07:06:49;100491.03;;;10.27;100.00
28310;BME280;15571;50.974;13.936;2024-02-21T07:09:51;100491.88;;;10.29;100.00
28310;BME280;15571;50.974;13.936;2024-02-21T07:12:55;100498.84;;;10.30;100.00
28310;BME280;15571;50.974;13.936;2024-02-21T07:15:57;100491.00;;;10.33;100.00
28310;BME280;15571;50.974;13.936;2024-02-21T07:18:59;100498.03;;;10.37;100.00
28310;BME280;15571;50.974;13.936;2024-02-21T07:22:01;100494.53;;;10.38;100.00
28310;BME280;15571;50.974;13.936;2024-02-21T07:25:03;100484.06;;;10.41;100.00
28310;BME280;15571;50.974;13.936;2024-02-21T07:28:09;100490.16;;;10.47;100.00
28310;BME280;15571;50.974;13.936;2024-02-21T07:31:12;100484.91;;;10.50;100.00
28310;BME280;15571;50.974;13.936;2024-02-21T07:34:14;100489.28;;;10.55;100.00
28310;BME280;15571;50.974;13.936;2024-02-21T07:37:16;100497.13;;;10.58;100.00
28310;BME280;15571;50.974;13.936;2024-02-21T07:40:18;100498.00;;;10.62;100.00
28310;BME280;15571;50.974;13.936;2024-02-21T07:43:21;100496.28;;;10.63;100.00
28310;BME280;15571;50.974;13.936;2024-02-21T07:46:24;100495.38;;;10.64;100.00
28310;BME280;15571;50.974;13.936;2024-02-21T07:49:25;100509.34;;;10.67;100.00
28310;BME280;15571;50.974;13.936;2024-02-21T07:52:27;100508.44;;;10.78;100.00
28310;BME280;15571;50.974;13.936;2024-02-21T07:55:29;100502.31;;;10.86;100.00
28310;BME280;15571;50.974;13.936;2024-02-21T07:58:35;100489.19;;;10.99;100.00
28310;BME280;15571;50.974;13.936;2024-02-21T08:01:37;100482.16;;;11.09;100.00
28310;BME280;15571;50.974;13.936;2024-02-21T08:04:39;100474.28;;;11.19;100.00
28310;BME280;15571;50.974;13.936;2024-02-21T08:07:41;100469.00;;;11.29;100.00
28310;BME280;15571;50.974;13.936;2024-02-21T08:10:43;100470.69;;;11.37;100.00
28310;BME280;15571;50.974;13.936;2024-02-21T08:13:46;100469.81;;;11.39;100.00
28310;BME280;15571;50.974;13.936;2024-02-21T08:16:48;100467.16;;;11.43;100.00
28310;BME280;15571;50.974;13.936;2024-02-21T08:19:50;100453.22;;;11.41;100.00
28310;BME280;15571;50.974;13.936;2024-02-21T08:22:55;100453.13;;;11.53;100.00
28310;BME280;15571;50.974;13.936;2024-02-21T08:25:58;100454.84;;;11.59;100.00
28310;BME280;15571;50.974;13.936;2024-02-21T08:29:02;100453.09;;;11.61;100.00
28310;BME280;15571;50.974;13.936;2024-02-21T08:32:04;100468.81;;;11.66;100.00
28310;BME280;15571;50.974;13.936;2024-02-21T08:35:08;100470.59;;;11.59;100.00
28310;BME280;15571;50.974;13.936;2024-02-21T08:38:11;100478.44;;;11.62;100.00
28310;BME280;15571;50.974;13.936;2024-02-21T08:41:15;100472.34;;;11.57;100.00
28310;BME280;15571;50.974;13.936;2024-02-21T08:44:19;100467.91;;;11.70;100.00
28310;BME280;15571;50.974;13.936;2024-02-21T08:47:21;100454.72;;;11.78;100.00
28310;BME280;15571;50.974;13.936;2024-02-21T08:50:26;100459.00;;;12.01;100.00
28310;BME280;15571;50.974;13.936;2024-02-21T08:53:30;100465.03;;;12.10;100.00
28310;BME280;15571;50.974;13.936;2024-02-21T08:56:32;100454.53;;;12.10;100.00
28310;BME280;15571;50.974;13.936;2024-02-21T08:59:36;100460.72;;;12.02;100.00
28310;BME280;15571;50.974;13.936;2024-02-21T09:02:39;100445.00;;;12.02;100.00
28310;BME280;15571;50.974;13.936;2024-02-21T09:05:41;100450.13;;;12.12;100.00
28310;BME280;15571;50.974;13.936;2024-02-21T09:08:43;100440.56;;;12.08;100.00
28310;BME280;15571;50.974;13.936;2024-02-21T09:11:45;100444.94;;;12.08;100.00
28310;BME280;15571;50.974;13.936;2024-02-21T09:14:49;100442.34;;;12.05;100.00
28310;BME280;15571;50.974;13.936;2024-02-21T09:17:51;100439.75;;;11.98;100.00
28310;BME280;15571;50.974;13.936;2024-02-21T09:20:53;100446.72;;;12.03;100.00
28310;BME280;15571;50.974;13.936;2024-02-21T09:23:55;100451.13;;;11.97;100.00
28310;BME280;15571;50.974;13.936;2024-02-21T09:26:57;100442.25;;;12.12;100.00
28310;BME280;15571;50.974;13.936;2024-02-21T09:30:02;100436.19;;;12.06;100.00
28310;BME280;15571;50.974;13.936;2024-02-21T09:33:05;100445.75;;;12.18;100.00
28310;BME280;15571;50.974;13.936;2024-02-21T09:36:07;100441.31;;;12.24;100.00
28310;BME280;15571;50.974;13.936;2024-02-21T09:39:09;100450.00;;;12.26;100.00
28310;BME280;15571;50.974;13.936;2024-02-21T09:42:14;100452.66;;;12.25;100.00
28310;BME280;15571;50.974;13.936;2024-02-21T09:45:21;100457.88;;;12.26;100.00
28310;BME280;15571;50.974;13.936;2024-02-21T09:48:30;100461.44;;;12.21;100.00
28310;BME280;15571;50.974;13.936;2024-02-21T09:51:37;100461.47;;;12.19;100.00
28310;BME280;15571;50.974;13.936;2024-02-21T09:54:40;100459.69;;;12.23;100.00
28310;BME280;15571;50.974;13.936;2024-02-21T09:57:45;100456.22;;;12.16;100.00
28310;BME280;15571;50.974;13.936;2024-02-21T10:00:49;100457.25;;;11.93;100.00
28310;BME280;15571;50.974;13.936;2024-02-21T10:03:51;100451.03;;;12.10;100.00
28310;BME280;15571;50.974;13.936;2024-02-21T10:06:54;100441.44;;;12.07;100.00
28310;BME280;15571;50.974;13.936;2024-02-21T10:10:00;100444.16;;;11.93;100.00
28310;BME280;15571;50.974;13.936;2024-02-21T10:13:03;100450.19;;;12.09;100.00
28310;BME280;15571;50.974;13.936;2024-02-21T10:16:07;100442.31;;;12.09;100.00
28310;BME280;15571;50.974;13.936;2024-02-21T10:19:15;100433.53;;;12.12;100.00
28310;BME280;15571;50.974;13.936;2024-02-21T10:22:17;100436.97;;;12.20;100.00
28310;BME280;15571;50.974;13.936;2024-02-21T10:25:21;100432.56;;;12.22;100.00
28310;BME280;15571;50.974;13.936;2024-02-21T10:28:23;100434.31;;;12.23;100.00
28310;BME280;15571;50.974;13.936;2024-02-21T10:31:27;100435.28;;;12.13;100.00
28310;BME280;15571;50.974;13.936;2024-02-21T10:34:29;100433.50;;;12.13;100.00
28310;BME280;15571;50.974;13.936;2024-02-21T10:37:31;100433.44;;;12.23;100.00
28310;BME280;15571;50.974;13.936;2024-02-21T10:40:33;100434.34;;;12.20;100.00
28310;BME280;15571;50.974;13.936;2024-02-21T10:43:37;100440.47;;;12.19;100.00
28310;BME280;15571;50.974;13.936;2024-02-21T10:46:41;100437.78;;;12.27;100.00
28310;BME280;15571;50.974;13.936;2024-02-21T10:49:46;100431.66;;;12.25;100.00
28310;BME280;15571;50.974;13.936;2024-02-21T10:52:51;100416.91;;;12.13;100.00
28310;BME280;15571;50.974;13.936;2024-02-21T10:55:58;100416.75;;;12.28;100.00
28310;BME280;15571;50.974;13.936;2024-02-21T10:59:02;100406.22;;;12.33;100.00
28310;BME280;15571;50.974;13.936;2024-02-21T11:02:06;100407.09;;;12.32;100.00
28310;BME280;15571;50.974;13.936;2024-02-21T11:05:08;100404.41;;;12.40;100.00
28310;BME280;15571;50.974;13.936;2024-02-21T11:08:11;100401.06;;;12.24;100.00
28310;BME280;15571;50.974;13.936;2024-02-21T11:11:14;100383.53;;;12.27;100.00
28310;BME280;15571;50.974;13.936;2024-02-21T11:14:20;100394.94;;;12.23;100.00
28310;BME280;15571;50.974;13.936;2024-02-21T11:17:24;100386.03;;;12.40;100.00
28310;BME280;15571;50.974;13.936;2024-02-21T11:20:33;100399.03;;;12.52;100.00
28310;BME280;15571;50.974;13.936;2024-02-21T11:23:35;100398.00;;;12.66;100.00
28310;BME280;15571;50.974;13.936;2024-02-21T11:26:37;100398.00;;;12.66;100.00
28310;BME280;15571;50.974;13.936;2024-02-21T11:29:39;100382.41;;;12.50;100.00
28310;BME280;15571;50.974;13.936;2024-02-21T11:32:43;100366.88;;;12.30;100.00
28310;BME280;15571;50.974;13.936;2024-02-21T11:35:46;100359.53;;;12.60;100.00
28310;BME280;15571;50.974;13.936;2024-02-21T11:38:48;100356.09;;;12.56;100.00
28310;BME280;15571;50.974;13.936;2024-02-21T11:42:02;100351.94;;;12.38;100.00
28310;BME280;15571;50.974;13.936;2024-02-21T11:45:05;100352.66;;;12.50;100.00
28310;BME280;15571;50.974;13.936;2024-02-21T11:48:10;100340.28;;;12.63;100.00
28310;BME280;15571;50.974;13.936;2024-02-21T11:51:12;100341.06;;;12.68;100.00
28310;BME280;15571;50.974;13.936;2024-02-21T11:54:22;100336.66;;;12.73;100.00
28310;BME280;15571;50.974;13.936;2024-02-21T11:57:24;100335.63;;;12.82;100.00
28310;BME280;15571;50.974;13.936;2024-02-21T12:00:26;100326.16;;;12.70;100.00
28310;BME280;15571;50.974;13.936;2024-02-21T12:03:29;100325.16;;;12.80;100.00
28310;BME280;15571;50.974;13.936;2024-02-21T12:06:32;100314.72;;;12.74;100.00
28310;BME280;15571;50.974;13.936;2024-02-21T12:09:36;100310.97;;;12.92;100.00
28310;BME280;15571;50.974;13.936;2024-02-21T12:12:38;100304.78;;;12.98;100.00
28310;BME280;15571;50.974;13.936;2024-02-21T12:15:40;100296.78;;;13.04;100.00
28310;BME280;15571;50.974;13.936;2024-02-21T12:18:44;100284.44;;;13.12;100.00
28310;BME280;15571;50.974;13.936;2024-02-21T12:21:49;100273.63;;;13.31;100.00
28310;BME280;15571;50.974;13.936;2024-02-21T12:24:51;100262.06;;;13.43;100.00
28310;BME280;15571;50.974;13.936;2024-02-21T12:27:56;100255.94;;;13.44;100.00
28310;BME280;15571;50.974;13.936;2024-02-21T12:30:58;100249.75;;;13.46;100.00
28310;BME280;15571;50.974;13.936;2024-02-21T12:34:04;100244.34;;;13.54;100.00
28310;BME280;15571;50.974;13.936;2024-02-21T12:37:06;100243.31;;;13.63;100.00
28310;BME280;15571;50.974;13.936;2024-02-21T12:40:08;100228.47;;;13.60;100.00
28310;BME280;15571;50.974;13.936;2024-02-21T12:43:13;100221.78;;;13.41;100.00
28310;BME280;15571;50.974;13.936;2024-02-21T12:46:20;100220.13;;;13.33;100.00
28310;BME280;15571;50.974;13.936;2024-02-21T12:49:23;100212.97;;;12.88;100.00
28310;BME280;15571;50.974;13.936;2024-02-21T12:52:27;100198.16;;;12.83;100.00
28310;BME280;15571;50.974;13.936;2024-02-21T12:55:29;100191.94;;;12.88;100.00
28310;BME280;15571;50.974;13.936;2024-02-21T12:58:31;100186.88;;;12.76;100.00
28310;BME280;15571;50.974;13.936;2024-02-21T13:01:33;100185.16;;;12.73;100.00
28310;BME280;15571;50.974;13.936;2024-02-21T13:04:36;100186.00;;;12.74;100.00
28310;BME280;15571;50.974;13.936;2024-02-21T13:07:41;100173.66;;;12.81;100.00
28310;BME280;15571;50.974;13.936;2024-02-21T13:10:43;100172.78;;;12.83;100.00
28310;BME280;15571;50.974;13.936;2024-02-21T13:13:45;100169.22;;;12.84;100.00
28310;BME280;15571;50.974;13.936;2024-02-21T13:16:47;100157.81;;;12.85;100.00
28310;BME280;15571;50.974;13.936;2024-02-21T13:19:50;100154.44;;;12.80;100.00
28310;BME280;15571;50.974;13.936;2024-02-21T13:22:52;100133.44;;;12.77;100.00
28310;BME280;15571;50.974;13.936;2024-02-21T13:25:54;100129.91;;;12.80;100.00
28310;BME280;15571;50.974;13.936;2024-02-21T13:28:57;100137.81;;;12.78;100.00
28310;BME280;15571;50.974;13.936;2024-02-21T13:31:59;100137.69;;;12.84;100.00
28310;BME280;15571;50.974;13.936;2024-02-21T13:35:04;100132.44;;;12.84;100.00
28310;BME280;15571;50.974;13.936;2024-02-21T13:38:06;100123.78;;;12.79;100.00
28310;BME280;15571;50.974;13.936;2024-02-21T13:41:10;100114.13;;;12.81;100.00
28310;BME280;15571;50.974;13.936;2024-02-21T13:44:12;100107.09;;;12.82;100.00
28310;BME280;15571;50.974;13.936;2024-02-21T13:47:14;100111.44;;;12.84;100.00
28310;BME280;15571;50.974;13.936;2024-02-21T13:50:18;100108.91;;;12.78;100.00
28310;BME280;15571;50.974;13.936;2024-02-21T13:53:29;100098.44;;;12.76;100.00
28310;BME280;15571;50.974;13.936;2024-02-21T13:56:31;100083.50;;;12.79;100.00
28310;BME280;15571;50.974;13.936;2024-02-21T13:59:36;100073.88;;;12.79;100.00
28310;BME280;15571;50.974;13.936;2024-02-21T14:02:38;100073.69;;;12.90;100.00
28310;BME280;15571;50.974;13.936;2024-02-21T14:05:44;100063.25;;;12.87;100.00
28310;BME280;15571;50.974;13.936;2024-02-21T14:08:48;100060.47;;;12.95;100.00
28310;BME280;15571;50.974;13.936;2024-02-21T14:11:51;100060.56;;;12.90;100.00
28310;BME280;15571;50.974;13.936;2024-02-21T14:14:53;100050.13;;;12.85;100.00
28310;BME280;15571;50.974;13.936;2024-02-21T14:17:55;100046.56;;;12.89;100.00
28310;BME280;15571;50.974;13.936;2024-02-21T14:20:58;100036.84;;;12.93;100.00
28310;BME280;15571;50.974;13.936;2024-02-21T14:24:00;100035.94;;;12.97;100.00
28310;BME280;15571;50.974;13.936;2024-02-21T14:27:03;100032.41;;;12.97;100.00
28310;BME280;15571;50.974;13.936;2024-02-21T14:30:06;100022.69;;;13.02;100.00
28310;BME280;15571;50.974;13.936;2024-02-21T14:33:11;100013.84;;;13.07;100.00
28310;BME280;15571;50.974;13.936;2024-02-21T14:36:14;100021.50;;;13.18;100.00
28310;BME280;15571;50.974;13.936;2024-02-21T14:39:17;100014.47;;;13.20;100.00
28310;BME280;15571;50.974;13.936;2024-02-21T14:42:18;100015.44;;;13.15;100.00
28310;BME280;15571;50.974;13.936;2024-02-21T14:45:20;100011.88;;;13.17;100.00
28310;BME280;15571;50.974;13.936;2024-02-21T14:48:23;100001.31;;;13.20;100.00
28310;BME280;15571;50.974;13.936;2024-02-21T14:51:30;99998.88;;;13.11;100.00
28310;BME280;15571;50.974;13.936;2024-02-21T14:54:34;99995.03;;;13.28;100.00
28310;BME280;15571;50.974;13.936;2024-02-21T14:57:36;99996.06;;;13.20;100.00
28310;BME280;15571;50.974;13.936;2024-02-21T15:00:38;99992.59;;;13.18;100.00
28310;BME280;15571;50.974;13.936;2024-02-21T15:03:40;99993.34;;;13.23;100.00
28310;BME280;15571;50.974;13.936;2024-02-21T15:06:47;99989.97;;;13.18;100.00
28310;BME280;15571;50.974;13.936;2024-02-21T15:09:49;99993.47;;;13.17;100.00
28310;BME280;15571;50.974;13.936;2024-02-21T15:12:52;99999.72;;;13.12;100.00
28310;BME280;15571;50.974;13.936;2024-02-21T15:15:54;99986.72;;;13.04;100.00
28310;BME280;15571;50.974;13.936;2024-02-21T15:18:56;99988.59;;;12.99;100.00
28310;BME280;15571;50.974;13.936;2024-02-21T15:21:59;99986.00;;;12.96;100.00
28310;BME280;15571;50.974;13.936;2024-02-21T15:25:01;99983.47;;;12.91;100.00
28310;BME280;15571;50.974;13.936;2024-02-21T15:28:05;99977.47;;;12.86;100.00
28310;BME280;15571;50.974;13.936;2024-02-21T15:31:06;99974.84;;;12.84;100.00
28310;BME280;15571;50.974;13.936;2024-02-21T15:34:08;99977.56;;;12.80;100.00